sensor_id;sensor_type;location;lat;lon;timestamp;P1;durP1;ratioP1;P2;durP2;ratioP2
23288;SDS011;11813;50.834;4.280;2023-02-15T00:00:19;81.33;;;40.27;;
23288;SDS011;11813;50.834;4.280;2023-02-15T00:02:44;76.53;;;40.07;;
23288;SDS011;11813;50.834;4.280;2023-02-15T00:05:10;77.67;;;40.33;;
23288;SDS011;11813;50.834;4.280;2023-02-15T00:07:36;80.13;;;39.77;;
23288;SDS011;11813;50.834;4.280;2023-02-15T00:10:01;85.23;;;40.93;;
23288;SDS011;11813;50.834;4.280;2023-02-15T00:12:27;78.37;;;39.47;;
23288;SDS011;11813;50.834;4.280;2023-02-15T00:14:53;79.83;;;39.67;;
23288;SDS011;11813;50.834;4.280;2023-02-15T00:17:19;77.40;;;39.73;;
23288;SDS011;11813;50.834;4.280;2023-02-15T00:19:45;75.97;;;39.87;;
23288;SDS011;11813;50.834;4.280;2023-02-15T00:22:10;75.87;;;39.00;;
23288;SDS011;11813;50.834;4.280;2023-02-15T00:24:36;77.97;;;40.77;;
23288;SDS011;11813;50.834;4.280;2023-02-15T00:27:01;82.87;;;39.07;;
23288;SDS011;11813;50.834;4.280;2023-02-15T00:29:27;82.00;;;39.93;;
23288;SDS011;11813;50.834;4.280;2023-02-15T00:31:53;78.73;;;37.57;;
23288;SDS011;11813;50.834;4.280;2023-02-15T00:34:20;77.70;;;39.10;;
23288;SDS011;11813;50.834;4.280;2023-02-15T00:36:47;85.13;;;39.50;;
23288;SDS011;11813;50.834;4.280;2023-02-15T00:39:13;76.80;;;39.20;;
23288;SDS011;11813;50.834;4.280;2023-02-15T00:41:39;77.90;;;38.80;;
23288;SDS011;11813;50.834;4.280;2023-02-15T00:44:06;76.93;;;39.00;;
23288;SDS011;11813;50.834;4.280;2023-02-15T00:46:32;74.53;;;39.23;;
23288;SDS011;11813;50.834;4.280;2023-02-15T00:48:58;88.83;;;40.33;;
23288;SDS011;11813;50.834;4.280;2023-02-15T00:51:24;72.97;;;39.07;;
23288;SDS011;11813;50.834;4.280;2023-02-15T00:53:49;83.70;;;40.40;;
23288;SDS011;11813;50.834;4.280;2023-02-15T00:56:15;79.33;;;41.00;;
23288;SDS011;11813;50.834;4.280;2023-02-15T00:58:41;84.43;;;40.80;;
23288;SDS011;11813;50.834;4.280;2023-02-15T01:01:08;75.53;;;39.20;;
23288;SDS011;11813;50.834;4.280;2023-02-15T01:03:35;75.80;;;40.47;;
23288;SDS011;11813;50.834;4.280;2023-02-15T01:06:02;74.90;;;39.13;;
23288;SDS011;11813;50.834;4.280;2023-02-15T01:08:28;76.77;;;39.33;;
23288;SDS011;11813;50.834;4.280;2023-02-15T01:10:54;67.90;;;39.27;;
23288;SDS011;11813;50.834;4.280;2023-02-15T01:13:20;76.77;;;37.93;;
23288;SDS011;11813;50.834;4.280;2023-02-15T01:15:51;75.17;;;37.40;;
23288;SDS011;11813;50.834;4.280;2023-02-15T01:18:19;73.00;;;37.63;;
23288;SDS011;11813;50.834;4.280;2023-02-15T01:20:44;75.93;;;37.47;;
23288;SDS011;11813;50.834;4.280;2023-02-15T01:23:10;75.07;;;37.63;;
23288;SDS011;11813;50.834;4.280;2023-02-15T01:25:36;70.90;;;38.57;;
23288;SDS011;11813;50.834;4.280;2023-02-15T01:28:02;74.90;;;37.10;;
23288;SDS011;11813;50.834;4.280;2023-02-15T01:30:27;72.50;;;36.87;;
23288;SDS011;11813;50.834;4.280;2023-02-15T01:32:53;81.93;;;36.90;;
23288;SDS011;11813;50.834;4.280;2023-02-15T01:35:19;72.60;;;35.50;;
23288;SDS011;11813;50.834;4.280;2023-02-15T01:37:45;74.40;;;38.10;;
23288;SDS011;11813;50.834;4.280;2023-02-15T01:40:14;72.87;;;37.10;;
23288;SDS011;11813;50.834;4.280;2023-02-15T01:42:41;72.10;;;37.00;;
23288;SDS011;11813;50.834;4.280;2023-02-15T01:50:31;77.57;;;37.90;;
23288;SDS011;11813;50.834;4.280;2023-02-15T01:53:23;64.87;;;36.37;;
23288;SDS011;11813;50.834;4.280;2023-02-15T01:55:53;75.87;;;36.40;;
23288;SDS011;11813;50.834;4.280;2023-02-15T01:58:24;84.30;;;37.60;;
23288;SDS011;11813;50.834;4.280;2023-02-15T02:00:52;73.63;;;34.80;;
23288;SDS011;11813;50.834;4.280;2023-02-15T02:03:25;66.20;;;34.73;;
23288;SDS011;11813;50.834;4.280;2023-02-15T02:06:04;64.43;;;34.70;;
23288;SDS011;11813;50.834;4.280;2023-02-15T02:08:30;68.40;;;34.27;;
23288;SDS011;11813;50.834;4.280;2023-02-15T02:10:56;59.10;;;33.30;;
23288;SDS011;11813;50.834;4.280;2023-02-15T02:13:22;64.23;;;33.60;;
23288;SDS011;11813;50.834;4.280;2023-02-15T02:15:57;74.33;;;35.87;;
23288;SDS011;11813;50.834;4.280;2023-02-15T02:18:35;60.77;;;33.97;;
23288;SDS011;11813;50.834;4.280;2023-02-15T02:27:18;66.67;;;33.77;;
23288;SDS011;11813;50.834;4.280;2023-02-15T02:32:59;68.90;;;35.00;;
23288;SDS011;11813;50.834;4.280;2023-02-15T02:41:44;78.97;;;35.20;;
23288;SDS011;11813;50.834;4.280;2023-02-15T02:47:05;66.47;;;34.43;;
23288;SDS011;11813;50.834;4.280;2023-02-15T02:49:37;66.57;;;33.23;;
23288;SDS011;11813;50.834;4.280;2023-02-15T02:52:33;67.97;;;33.27;;
23288;SDS011;11813;50.834;4.280;2023-02-15T02:55:05;67.73;;;33.97;;
23288;SDS011;11813;50.834;4.280;2023-02-15T02:57:35;71.97;;;34.47;;
23288;SDS011;11813;50.834;4.280;2023-02-15T03:00:06;62.80;;;33.43;;
23288;SDS011;11813;50.834;4.280;2023-02-15T03:02:35;63.20;;;31.97;;
23288;SDS011;11813;50.834;4.280;2023-02-15T03:05:07;76.37;;;33.30;;
23288;SDS011;11813;50.834;4.280;2023-02-15T03:07:37;59.87;;;33.00;;
23288;SDS011;11813;50.834;4.280;2023-02-15T03:10:05;68.23;;;32.47;;
23288;SDS011;11813;50.834;4.280;2023-02-15T03:12:33;71.30;;;33.13;;
23288;SDS011;11813;50.834;4.280;2023-02-15T03:15:03;67.67;;;32.73;;
23288;SDS011;11813;50.834;4.280;2023-02-15T03:18:16;62.33;;;34.17;;
23288;SDS011;11813;50.834;4.280;2023-02-15T03:20:45;72.23;;;33.20;;
23288;SDS011;11813;50.834;4.280;2023-02-15T03:23:13;65.13;;;33.13;;
23288;SDS011;11813;50.834;4.280;2023-02-15T03:25:44;57.40;;;32.03;;
23288;SDS011;11813;50.834;4.280;2023-02-15T03:28:14;60.13;;;32.20;;
23288;SDS011;11813;50.834;4.280;2023-02-15T03:30:45;60.57;;;31.73;;
23288;SDS011;11813;50.834;4.280;2023-02-15T03:33:14;65.47;;;32.77;;
23288;SDS011;11813;50.834;4.280;2023-02-15T03:38:29;64.47;;;32.50;;
23288;SDS011;11813;50.834;4.280;2023-02-15T03:41:04;62.50;;;31.47;;
23288;SDS011;11813;50.834;4.280;2023-02-15T03:48:54;60.57;;;31.17;;
23288;SDS011;11813;50.834;4.280;2023-02-15T03:51:27;61.33;;;31.43;;
23288;SDS011;11813;50.834;4.280;2023-02-15T03:54:00;65.83;;;32.60;;
23288;SDS011;11813;50.834;4.280;2023-02-15T03:56:33;60.30;;;30.90;;
23288;SDS011;11813;50.834;4.280;2023-02-15T03:59:02;60.47;;;31.77;;
23288;SDS011;11813;50.834;4.280;2023-02-15T04:01:55;60.83;;;32.97;;
23288;SDS011;11813;50.834;4.280;2023-02-15T04:07:01;59.13;;;29.33;;
23288;SDS011;11813;50.834;4.280;2023-02-15T04:09:27;65.87;;;31.47;;
23288;SDS011;11813;50.834;4.280;2023-02-15T04:12:11;60.63;;;31.33;;
23288;SDS011;11813;50.834;4.280;2023-02-15T04:14:37;61.27;;;31.70;;
23288;SDS011;11813;50.834;4.280;2023-02-15T04:17:21;60.97;;;32.10;;
23288;SDS011;11813;50.834;4.280;2023-02-15T04:19:47;66.17;;;33.80;;
23288;SDS011;11813;50.834;4.280;2023-02-15T04:22:31;56.87;;;29.77;;
23288;SDS011;11813;50.834;4.280;2023-02-15T04:25:15;57.93;;;30.97;;
23288;SDS011;11813;50.834;4.280;2023-02-15T04:27:42;58.93;;;31.20;;
23288;SDS011;11813;50.834;4.280;2023-02-15T04:30:15;59.83;;;30.13;;
23288;SDS011;11813;50.834;4.280;2023-02-15T04:32:43;58.03;;;29.63;;
23288;SDS011;11813;50.834;4.280;2023-02-15T04:35:09;63.30;;;30.57;;
23288;SDS011;11813;50.834;4.280;2023-02-15T04:37:36;64.83;;;32.17;;
23288;SDS011;11813;50.834;4.280;2023-02-15T04:40:02;68.20;;;31.97;;
23288;SDS011;11813;50.834;4.280;2023-02-15T04:42:28;66.03;;;30.73;;
23288;SDS011;11813;50.834;4.280;2023-02-15T04:44:54;60.00;;;31.70;;
23288;SDS011;11813;50.834;4.280;2023-02-15T04:47:20;66.93;;;33.93;;
23288;SDS011;11813;50.834;4.280;2023-02-15T04:49:46;57.27;;;30.47;;
23288;SDS011;11813;50.834;4.280;2023-02-15T04:52:11;62.73;;;31.07;;
23288;SDS011;11813;50.834;4.280;2023-02-15T04:54:37;65.47;;;31.73;;
23288;SDS011;11813;50.834;4.280;2023-02-15T04:57:03;58.53;;;30.23;;
23288;SDS011;11813;50.834;4.280;2023-02-15T04:59:29;56.60;;;30.60;;
23288;SDS011;11813;50.834;4.280;2023-02-15T05:01:54;54.10;;;29.77;;
23288;SDS011;11813;50.834;4.280;2023-02-15T05:04:20;60.10;;;30.67;;
23288;SDS011;11813;50.834;4.280;2023-02-15T05:06:45;60.90;;;32.30;;
23288;SDS011;11813;50.834;4.280;2023-02-15T05:09:11;61.90;;;31.30;;
23288;SDS011;11813;50.834;4.280;2023-02-15T05:11:37;57.87;;;30.93;;
23288;SDS011;11813;50.834;4.280;2023-02-15T05:14:03;65.17;;;31.37;;
23288;SDS011;11813;50.834;4.280;2023-02-15T05:16:28;58.27;;;31.23;;
23288;SDS011;11813;50.834;4.280;2023-02-15T05:18:54;55.27;;;28.77;;
23288;SDS011;11813;50.834;4.280;2023-02-15T05:21:20;59.90;;;29.80;;
23288;SDS011;11813;50.834;4.280;2023-02-15T05:23:45;59.30;;;31.97;;
23288;SDS011;11813;50.834;4.280;2023-02-15T05:26:12;60.23;;;30.40;;
23288;SDS011;11813;50.834;4.280;2023-02-15T05:28:59;57.30;;;29.93;;
23288;SDS011;11813;50.834;4.280;2023-02-15T05:31:25;63.57;;;30.60;;
23288;SDS011;11813;50.834;4.280;2023-02-15T05:33:50;64.80;;;30.00;;
23288;SDS011;11813;50.834;4.280;2023-02-15T05:36:16;57.40;;;30.13;;
23288;SDS011;11813;50.834;4.280;2023-02-15T05:38:41;58.50;;;31.40;;
23288;SDS011;11813;50.834;4.280;2023-02-15T05:41:07;60.50;;;31.70;;
23288;SDS011;11813;50.834;4.280;2023-02-15T05:43:34;71.60;;;32.13;;
23288;SDS011;11813;50.834;4.280;2023-02-15T05:46:00;66.50;;;32.83;;
23288;SDS011;11813;50.834;4.280;2023-02-15T05:48:26;59.40;;;30.17;;
23288;SDS011;11813;50.834;4.280;2023-02-15T05:53:38;67.53;;;30.63;;
23288;SDS011;11813;50.834;4.280;2023-02-15T05:56:05;62.83;;;31.37;;
23288;SDS011;11813;50.834;4.280;2023-02-15T05:58:35;62.40;;;32.93;;
23288;SDS011;11813;50.834;4.280;2023-02-15T06:01:12;59.53;;;31.00;;
23288;SDS011;11813;50.834;4.280;2023-02-15T06:03:43;65.80;;;31.87;;
23288;SDS011;11813;50.834;4.280;2023-02-15T06:06:09;64.33;;;31.30;;
23288;SDS011;11813;50.834;4.280;2023-02-15T06:08:36;61.27;;;32.53;;
23288;SDS011;11813;50.834;4.280;2023-02-15T06:11:02;65.13;;;30.77;;
23288;SDS011;11813;50.834;4.280;2023-02-15T06:13:28;60.73;;;31.17;;
23288;SDS011;11813;50.834;4.280;2023-02-15T06:15:54;63.03;;;31.07;;
23288;SDS011;11813;50.834;4.280;2023-02-15T06:18:20;64.27;;;31.63;;
23288;SDS011;11813;50.834;4.280;2023-02-15T06:20:46;64.43;;;31.07;;
23288;SDS011;11813;50.834;4.280;2023-02-15T06:23:12;73.70;;;32.23;;
23288;SDS011;11813;50.834;4.280;2023-02-15T06:25:38;58.60;;;30.80;;
23288;SDS011;11813;50.834;4.280;2023-02-15T06:28:03;66.57;;;32.37;;
23288;SDS011;11813;50.834;4.280;2023-02-15T06:30:29;64.90;;;31.97;;
23288;SDS011;11813;50.834;4.280;2023-02-15T06:32:55;64.63;;;32.23;;
23288;SDS011;11813;50.834;4.280;2023-02-15T06:35:20;57.30;;;30.63;;
23288;SDS011;11813;50.834;4.280;2023-02-15T06:37:46;60.83;;;31.43;;
23288;SDS011;11813;50.834;4.280;2023-02-15T06:40:13;66.83;;;31.60;;
23288;SDS011;11813;50.834;4.280;2023-02-15T06:42:39;64.57;;;31.30;;
23288;SDS011;11813;50.834;4.280;2023-02-15T06:45:05;68.00;;;32.27;;
23288;SDS011;11813;50.834;4.280;2023-02-15T06:47:31;63.67;;;33.67;;
23288;SDS011;11813;50.834;4.280;2023-02-15T06:49:57;62.27;;;32.07;;
23288;SDS011;11813;50.834;4.280;2023-02-15T06:52:23;67.53;;;32.80;;
23288;SDS011;11813;50.834;4.280;2023-02-15T06:54:48;68.23;;;32.87;;
23288;SDS011;11813;50.834;4.280;2023-02-15T06:57:14;63.37;;;33.03;;
23288;SDS011;11813;50.834;4.280;2023-02-15T06:59:40;69.10;;;32.77;;
23288;SDS011;11813;50.834;4.280;2023-02-15T07:02:05;65.03;;;33.33;;
23288;SDS011;11813;50.834;4.280;2023-02-15T07:04:31;70.07;;;32.03;;
23288;SDS011;11813;50.834;4.280;2023-02-15T07:06:57;69.83;;;33.33;;
23288;SDS011;11813;50.834;4.280;2023-02-15T07:09:22;67.17;;;33.20;;
23288;SDS011;11813;50.834;4.280;2023-02-15T07:11:48;66.83;;;32.87;;
23288;SDS011;11813;50.834;4.280;2023-02-15T07:14:32;69.40;;;33.40;;
23288;SDS011;11813;50.834;4.280;2023-02-15T07:16:58;64.27;;;32.87;;
23288;SDS011;11813;50.834;4.280;2023-02-15T07:19:23;66.73;;;32.70;;
23288;SDS011;11813;50.834;4.280;2023-02-15T07:21:49;66.67;;;32.63;;
23288;SDS011;11813;50.834;4.280;2023-02-15T07:24:15;68.20;;;31.77;;
23288;SDS011;11813;50.834;4.280;2023-02-15T07:26:41;71.40;;;34.13;;
23288;SDS011;11813;50.834;4.280;2023-02-15T07:29:06;73.23;;;33.93;;
23288;SDS011;11813;50.834;4.280;2023-02-15T07:31:32;72.13;;;31.77;;
23288;SDS011;11813;50.834;4.280;2023-02-15T07:33:58;70.80;;;31.40;;
23288;SDS011;11813;50.834;4.280;2023-02-15T07:36:23;66.00;;;33.17;;
23288;SDS011;11813;50.834;4.280;2023-02-15T07:38:49;67.27;;;33.20;;
23288;SDS011;11813;50.834;4.280;2023-02-15T07:41:14;65.80;;;32.87;;
23288;SDS011;11813;50.834;4.280;2023-02-15T07:43:41;65.77;;;33.47;;
23288;SDS011;11813;50.834;4.280;2023-02-15T07:46:09;71.90;;;33.80;;
23288;SDS011;11813;50.834;4.280;2023-02-15T07:48:39;64.40;;;33.47;;
23288;SDS011;11813;50.834;4.280;2023-02-15T07:51:07;64.70;;;33.37;;
23288;SDS011;11813;50.834;4.280;2023-02-15T07:53:34;72.93;;;36.77;;
23288;SDS011;11813;50.834;4.280;2023-02-15T07:56:01;60.43;;;32.60;;
23288;SDS011;11813;50.834;4.280;2023-02-15T07:58:27;78.90;;;35.77;;
23288;SDS011;11813;50.834;4.280;2023-02-15T08:01:12;68.60;;;34.27;;
23288;SDS011;11813;50.834;4.280;2023-02-15T08:03:38;62.93;;;32.57;;
23288;SDS011;11813;50.834;4.280;2023-02-15T08:06:04;67.27;;;34.50;;
23288;SDS011;11813;50.834;4.280;2023-02-15T08:08:30;63.97;;;33.87;;
23288;SDS011;11813;50.834;4.280;2023-02-15T08:13:47;74.23;;;36.27;;
23288;SDS011;11813;50.834;4.280;2023-02-15T08:18:59;65.70;;;33.87;;
23288;SDS011;11813;50.834;4.280;2023-02-15T08:21:30;68.57;;;35.27;;
23288;SDS011;11813;50.834;4.280;2023-02-15T08:23:57;70.73;;;35.03;;
23288;SDS011;11813;50.834;4.280;2023-02-15T08:26:24;77.37;;;34.43;;
23288;SDS011;11813;50.834;4.280;2023-02-15T08:28:52;77.70;;;38.23;;
23288;SDS011;11813;50.834;4.280;2023-02-15T08:31:18;77.30;;;39.27;;
23288;SDS011;11813;50.834;4.280;2023-02-15T08:33:45;76.67;;;37.83;;
23288;SDS011;11813;50.834;4.280;2023-02-15T08:36:12;75.23;;;36.07;;
23288;SDS011;11813;50.834;4.280;2023-02-15T08:38:40;75.50;;;37.33;;
23288;SDS011;11813;50.834;4.280;2023-02-15T08:41:10;84.63;;;37.93;;
23288;SDS011;11813;50.834;4.280;2023-02-15T08:43:40;79.53;;;38.47;;
23288;SDS011;11813;50.834;4.280;2023-02-15T08:46:07;86.03;;;39.47;;
23288;SDS011;11813;50.834;4.280;2023-02-15T08:48:34;83.87;;;39.67;;
23288;SDS011;11813;50.834;4.280;2023-02-15T08:51:03;84.40;;;42.90;;
23288;SDS011;11813;50.834;4.280;2023-02-15T08:53:30;78.23;;;39.00;;
23288;SDS011;11813;50.834;4.280;2023-02-15T08:55:56;80.10;;;39.03;;
23288;SDS011;11813;50.834;4.280;2023-02-15T08:58:23;76.03;;;37.83;;
23288;SDS011;11813;50.834;4.280;2023-02-15T09:00:49;77.10;;;38.13;;
23288;SDS011;11813;50.834;4.280;2023-02-15T09:03:15;76.73;;;38.33;;
23288;SDS011;11813;50.834;4.280;2023-02-15T09:05:40;80.53;;;39.37;;
23288;SDS011;11813;50.834;4.280;2023-02-15T09:08:06;80.87;;;37.43;;
23288;SDS011;11813;50.834;4.280;2023-02-15T09:10:31;74.20;;;39.13;;
23288;SDS011;11813;50.834;4.280;2023-02-15T09:12:57;72.87;;;38.23;;
23288;SDS011;11813;50.834;4.280;2023-02-15T09:15:22;77.23;;;37.83;;
23288;SDS011;11813;50.834;4.280;2023-02-15T09:17:48;65.20;;;37.10;;
23288;SDS011;11813;50.834;4.280;2023-02-15T09:20:14;74.07;;;38.50;;
23288;SDS011;11813;50.834;4.280;2023-02-15T09:22:39;71.80;;;36.53;;
23288;SDS011;11813;50.834;4.280;2023-02-15T09:25:05;68.00;;;35.33;;
23288;SDS011;11813;50.834;4.280;2023-02-15T09:27:30;67.17;;;33.67;;
23288;SDS011;11813;50.834;4.280;2023-02-15T09:29:56;63.77;;;33.10;;
23288;SDS011;11813;50.834;4.280;2023-02-15T09:32:22;64.80;;;33.23;;
23288;SDS011;11813;50.834;4.280;2023-02-15T09:34:47;64.03;;;33.63;;
23288;SDS011;11813;50.834;4.280;2023-02-15T09:37:13;62.13;;;32.20;;
23288;SDS011;11813;50.834;4.280;2023-02-15T09:39:39;61.97;;;32.73;;
23288;SDS011;11813;50.834;4.280;2023-02-15T09:51:00;53.17;;;28.70;;
23288;SDS011;11813;50.834;4.280;2023-02-15T09:54:12;55.67;;;30.23;;
23288;SDS011;11813;50.834;4.280;2023-02-15T09:56:51;54.67;;;29.07;;
23288;SDS011;11813;50.834;4.280;2023-02-15T10:02:06;51.30;;;27.97;;
23288;SDS011;11813;50.834;4.280;2023-02-15T10:04:49;54.70;;;27.23;;
23288;SDS011;11813;50.834;4.280;2023-02-15T10:10:27;43.47;;;23.80;;
23288;SDS011;11813;50.834;4.280;2023-02-15T10:13:30;53.70;;;26.40;;
23288;SDS011;11813;50.834;4.280;2023-02-15T10:22:11;48.63;;;25.77;;
23288;SDS011;11813;50.834;4.280;2023-02-15T10:27:41;50.07;;;25.27;;
23288;SDS011;11813;50.834;4.280;2023-02-15T10:30:12;50.47;;;25.57;;
23288;SDS011;11813;50.834;4.280;2023-02-15T10:35:34;47.73;;;24.47;;
23288;SDS011;11813;50.834;4.280;2023-02-15T10:38:24;47.07;;;24.80;;
23288;SDS011;11813;50.834;4.280;2023-02-15T10:54:44;42.63;;;21.40;;
23288;SDS011;11813;50.834;4.280;2023-02-15T10:57:47;41.03;;;21.27;;
23288;SDS011;11813;50.834;4.280;2023-02-15T11:06:08;38.17;;;20.40;;
23288;SDS011;11813;50.834;4.280;2023-02-15T11:08:41;42.17;;;23.37;;
23288;SDS011;11813;50.834;4.280;2023-02-15T11:11:10;38.70;;;22.37;;
23288;SDS011;11813;50.834;4.280;2023-02-15T11:13:45;43.33;;;22.67;;
23288;SDS011;11813;50.834;4.280;2023-02-15T11:16:22;40.47;;;22.73;;
23288;SDS011;11813;50.834;4.280;2023-02-15T11:21:32;41.73;;;22.50;;
23288;SDS011;11813;50.834;4.280;2023-02-15T11:24:10;44.17;;;23.47;;
23288;SDS011;11813;50.834;4.280;2023-02-15T11:26:54;47.77;;;25.60;;
23288;SDS011;11813;50.834;4.280;2023-02-15T11:29:32;44.10;;;24.37;;
23288;SDS011;11813;50.834;4.280;2023-02-15T11:32:33;43.17;;;23.40;;
23288;SDS011;11813;50.834;4.280;2023-02-15T11:37:37;49.30;;;24.17;;
23288;SDS011;11813;50.834;4.280;2023-02-15T11:42:50;47.17;;;25.90;;
23288;SDS011;11813;50.834;4.280;2023-02-15T11:47:54;46.43;;;25.70;;
23288;SDS011;11813;50.834;4.280;2023-02-15T11:50:22;51.47;;;26.47;;
23288;SDS011;11813;50.834;4.280;2023-02-15T11:52:49;47.40;;;26.70;;
23288;SDS011;11813;50.834;4.280;2023-02-15T11:55:19;50.17;;;26.90;;
23288;SDS011;11813;50.834;4.280;2023-02-15T11:57:52;49.70;;;27.47;;
23288;SDS011;11813;50.834;4.280;2023-02-15T12:03:00;51.00;;;28.20;;
23288;SDS011;11813;50.834;4.280;2023-02-15T12:05:32;47.43;;;25.57;;
23288;SDS011;11813;50.834;4.280;2023-02-15T12:08:02;53.80;;;27.87;;
23288;SDS011;11813;50.834;4.280;2023-02-15T12:10:36;46.87;;;27.20;;
23288;SDS011;11813;50.834;4.280;2023-02-15T12:13:11;48.83;;;27.83;;
23288;SDS011;11813;50.834;4.280;2023-02-15T12:15:37;49.70;;;27.13;;
23288;SDS011;11813;50.834;4.280;2023-02-15T12:18:15;46.57;;;26.67;;
23288;SDS011;11813;50.834;4.280;2023-02-15T12:21:09;45.87;;;27.47;;
23288;SDS011;11813;50.834;4.280;2023-02-15T12:23:48;53.27;;;28.10;;
23288;SDS011;11813;50.834;4.280;2023-02-15T12:26:23;55.20;;;28.03;;
23288;SDS011;11813;50.834;4.280;2023-02-15T12:29:18;51.27;;;28.23;;
23288;SDS011;11813;50.834;4.280;2023-02-15T12:31:52;50.97;;;28.40;;
23288;SDS011;11813;50.834;4.280;2023-02-15T12:36:57;51.20;;;29.63;;
23288;SDS011;11813;50.834;4.280;2023-02-15T12:39:28;47.53;;;27.80;;
23288;SDS011;11813;50.834;4.280;2023-02-15T12:41:58;49.47;;;28.17;;
23288;SDS011;11813;50.834;4.280;2023-02-15T12:44:39;48.47;;;27.57;;
23288;SDS011;11813;50.834;4.280;2023-02-15T12:47:22;52.80;;;28.40;;
23288;SDS011;11813;50.834;4.280;2023-02-15T12:53:02;53.90;;;27.97;;
23288;SDS011;11813;50.834;4.280;2023-02-15T12:58:22;47.57;;;27.60;;
23288;SDS011;11813;50.834;4.280;2023-02-15T13:03:55;51.40;;;27.63;;
23288;SDS011;11813;50.834;4.280;2023-02-15T13:06:28;47.70;;;28.13;;
23288;SDS011;11813;50.834;4.280;2023-02-15T13:08:57;49.10;;;27.60;;
23288;SDS011;11813;50.834;4.280;2023-02-15T13:11:31;52.00;;;28.53;;
23288;SDS011;11813;50.834;4.280;2023-02-15T13:14:01;58.00;;;28.73;;
23288;SDS011;11813;50.834;4.280;2023-02-15T13:16:41;49.83;;;27.50;;
23288;SDS011;11813;50.834;4.280;2023-02-15T13:19:20;51.07;;;28.03;;
23288;SDS011;11813;50.834;4.280;2023-02-15T13:21:56;52.80;;;28.80;;
23288;SDS011;11813;50.834;4.280;2023-02-15T13:24:33;53.17;;;29.80;;
23288;SDS011;11813;50.834;4.280;2023-02-15T13:27:23;53.93;;;30.77;;
23288;SDS011;11813;50.834;4.280;2023-02-15T13:29:57;53.20;;;30.20;;
23288;SDS011;11813;50.834;4.280;2023-02-15T13:32:31;51.83;;;31.80;;
23288;SDS011;11813;50.834;4.280;2023-02-15T13:35:02;48.33;;;30.63;;
23288;SDS011;11813;50.834;4.280;2023-02-15T13:40:36;54.40;;;30.40;;
23288;SDS011;11813;50.834;4.280;2023-02-15T13:46:24;47.90;;;29.37;;
23288;SDS011;11813;50.834;4.280;2023-02-15T13:49:09;51.93;;;30.60;;
23288;SDS011;11813;50.834;4.280;2023-02-15T14:03:11;52.40;;;29.63;;
23288;SDS011;11813;50.834;4.280;2023-02-15T14:06:29;58.30;;;31.17;;
23288;SDS011;11813;50.834;4.280;2023-02-15T14:08:47;54.77;;;31.47;;
23288;SDS011;11813;50.834;4.280;2023-02-15T14:14:25;52.10;;;30.93;;
23288;SDS011;11813;50.834;4.280;2023-02-15T14:20:18;58.07;;;32.97;;
23288;SDS011;11813;50.834;4.280;2023-02-15T14:23:01;54.77;;;32.63;;
23288;SDS011;11813;50.834;4.280;2023-02-15T14:25:43;63.30;;;35.70;;
23288;SDS011;11813;50.834;4.280;2023-02-15T14:28:27;56.70;;;32.73;;
23288;SDS011;11813;50.834;4.280;2023-02-15T14:31:06;57.03;;;32.23;;
23288;SDS011;11813;50.834;4.280;2023-02-15T14:33:40;51.93;;;30.00;;
23288;SDS011;11813;50.834;4.280;2023-02-15T14:36:13;53.50;;;31.60;;
23288;SDS011;11813;50.834;4.280;2023-02-15T14:42:25;52.93;;;30.93;;
23288;SDS011;11813;50.834;4.280;2023-02-15T14:47:38;52.37;;;31.70;;
23288;SDS011;11813;50.834;4.280;2023-02-15T14:53:15;52.30;;;30.17;;
23288;SDS011;11813;50.834;4.280;2023-02-15T14:58:38;60.63;;;33.87;;
23288;SDS011;11813;50.834;4.280;2023-02-15T15:01:27;58.07;;;34.13;;
23288;SDS011;11813;50.834;4.280;2023-02-15T15:04:08;65.30;;;35.57;;
23288;SDS011;11813;50.834;4.280;2023-02-15T15:06:38;60.77;;;34.53;;
23288;SDS011;11813;50.834;4.280;2023-02-15T15:11:44;62.83;;;34.03;;
23288;SDS011;11813;50.834;4.280;2023-02-15T15:14:36;55.43;;;32.20;;
23288;SDS011;11813;50.834;4.280;2023-02-15T15:17:03;58.13;;;33.43;;
23288;SDS011;11813;50.834;4.280;2023-02-15T15:22:23;59.57;;;33.07;;
23288;SDS011;11813;50.834;4.280;2023-02-15T15:25:03;57.00;;;33.67;;
23288;SDS011;11813;50.834;4.280;2023-02-15T15:43:32;49.70;;;31.17;;
23288;SDS011;11813;50.834;4.280;2023-02-15T15:49:01;55.87;;;30.10;;
23288;SDS011;11813;50.834;4.280;2023-02-15T15:51:33;53.80;;;31.53;;
23288;SDS011;11813;50.834;4.280;2023-02-15T15:54:01;51.23;;;29.77;;
23288;SDS011;11813;50.834;4.280;2023-02-15T15:56:32;51.47;;;30.53;;
23288;SDS011;11813;50.834;4.280;2023-02-15T15:59:01;59.57;;;31.57;;
23288;SDS011;11813;50.834;4.280;2023-02-15T16:01:35;51.30;;;30.70;;
23288;SDS011;11813;50.834;4.280;2023-02-15T16:04:10;54.43;;;29.87;;
23288;SDS011;11813;50.834;4.280;2023-02-15T16:06:38;52.77;;;29.90;;
23288;SDS011;11813;50.834;4.280;2023-02-15T16:09:26;47.80;;;29.03;;
23288;SDS011;11813;50.834;4.280;2023-02-15T16:12:01;50.70;;;29.37;;
23288;SDS011;11813;50.834;4.280;2023-02-15T16:14:31;49.13;;;30.23;;
23288;SDS011;11813;50.834;4.280;2023-02-15T16:17:02;54.73;;;29.50;;
23288;SDS011;11813;50.834;4.280;2023-02-15T16:19:32;53.70;;;33.33;;
23288;SDS011;11813;50.834;4.280;2023-02-15T16:22:00;52.83;;;30.07;;
23288;SDS011;11813;50.834;4.280;2023-02-15T16:29:33;50.20;;;27.47;;
23288;SDS011;11813;50.834;4.280;2023-02-15T16:34:30;44.00;;;28.00;;
23288;SDS011;11813;50.834;4.280;2023-02-15T16:37:12;49.70;;;30.00;;
23288;SDS011;11813;50.834;4.280;2023-02-15T16:39:42;45.90;;;28.10;;
23288;SDS011;11813;50.834;4.280;2023-02-15T16:42:09;54.93;;;28.53;;
23288;SDS011;11813;50.834;4.280;2023-02-15T16:44:36;45.43;;;27.63;;
23288;SDS011;11813;50.834;4.280;2023-02-15T16:47:02;48.30;;;28.37;;
23288;SDS011;11813;50.834;4.280;2023-02-15T16:49:28;49.93;;;29.63;;
23288;SDS011;11813;50.834;4.280;2023-02-15T16:52:06;47.57;;;28.17;;
23288;SDS011;11813;50.834;4.280;2023-02-15T16:54:33;49.03;;;27.27;;
23288;SDS011;11813;50.834;4.280;2023-02-15T16:57:00;51.63;;;29.43;;
23288;SDS011;11813;50.834;4.280;2023-02-15T17:01:55;46.17;;;27.23;;
23288;SDS011;11813;50.834;4.280;2023-02-15T17:09:49;52.77;;;26.03;;
23288;SDS011;11813;50.834;4.280;2023-02-15T17:17:54;51.63;;;27.53;;
23288;SDS011;11813;50.834;4.280;2023-02-15T17:20:22;52.47;;;29.23;;
23288;SDS011;11813;50.834;4.280;2023-02-15T17:22:49;52.73;;;27.67;;
23288;SDS011;11813;50.834;4.280;2023-02-15T17:25:19;51.73;;;29.53;;
23288;SDS011;11813;50.834;4.280;2023-02-15T17:27:51;50.47;;;29.13;;
23288;SDS011;11813;50.834;4.280;2023-02-15T17:30:32;51.13;;;29.67;;
23288;SDS011;11813;50.834;4.280;2023-02-15T17:33:03;57.33;;;30.23;;
23288;SDS011;11813;50.834;4.280;2023-02-15T17:35:43;59.67;;;31.07;;
23288;SDS011;11813;50.834;4.280;2023-02-15T17:38:18;62.53;;;33.23;;
23288;SDS011;11813;50.834;4.280;2023-02-15T17:40:45;64.37;;;32.93;;
23288;SDS011;11813;50.834;4.280;2023-02-15T17:43:10;62.73;;;33.90;;
23288;SDS011;11813;50.834;4.280;2023-02-15T17:45:39;61.27;;;33.73;;
23288;SDS011;11813;50.834;4.280;2023-02-15T17:48:09;65.97;;;33.27;;
23288;SDS011;11813;50.834;4.280;2023-02-15T17:50:55;63.10;;;33.53;;
23288;SDS011;11813;50.834;4.280;2023-02-15T17:53:22;61.83;;;33.77;;
23288;SDS011;11813;50.834;4.280;2023-02-15T17:55:49;64.13;;;34.83;;